Time;durP1;ratioP1;P1;durP2;ratioP2;P2;SDS_P1;SDS_P2;PMS_P1;PMS_P2;Temp;Humidity;BMP_temperature;BMP_pressure;BME280_temperature;BME280_humidity;BME280_pressure;Samples;Min_cycle;Max_cycle;Signal;HPM_P1;HPM_P2
2021/12/16 00:03:04;;;;;;;10.23;7.47;;;;;;;;;;5015963;28;20476;-81
2021/12/16 00:05:51;;;;;;;15.60;8.37;;;;;;;;;;5024534;28;20494;-81
2021/12/16 00:08:22;;;;;;;13.33;8.13;;;;;;;;;;5027659;28;20468;-80
2021/12/16 00:10:55;;;;;;;11.03;7.63;;;;;;;;;;5026976;28;20481;-81
2021/12/16 00:30:10;;;;;;;14.30;8.40;;;;;;;;;;5029289;28;20471;-80
2021/12/16 00:32:47;;;;;;;11.77;8.23;;;;;;;;;;5027643;28;20484;-80
2021/12/16 00:35:15;;;;;;;11.50;8.37;;;;;;;;;;5030163;28;20488;-80
2021/12/16 00:37:42;;;;;;;12.60;7.97;;;;;;;;;;5029157;28;20449;-80
2021/12/16 00:40:12;;;;;;;9.80;6.47;;;;;;;;;;5027763;28;20480;-81
2021/12/16 00:42:46;;;;;;;15.23;9.20;;;;;;;;;;5031320;28;20445;-81
2021/12/16 00:45:32;;;;;;;19.00;9.00;;;;;;;;;;5029856;28;20477;-81
2021/12/16 00:48:01;;;;;;;13.33;8.33;;;;;;;;;;5029332;28;20465;-80
2021/12/16 00:56:01;;;;;;;16.77;10.67;;;;;;;;;;5029707;28;20444;-81
2021/12/16 00:58:32;;;;;;;17.37;11.60;;;;;;;;;;5031581;28;20468;-81
2021/12/16 01:01:05;;;;;;;16.63;8.87;;;;;;;;;;5032221;28;20452;-81
2021/12/16 01:03:38;;;;;;;18.77;8.93;;;;;;;;;;5030164;28;20555;-81
2021/12/16 01:06:27;;;;;;;20.50;11.47;;;;;;;;;;5029064;28;20916;-80
2021/12/16 01:34:01;;;;;;;24.37;13.13;;;;;;;;;;5029137;28;20502;-82
2021/12/16 01:36:47;;;;;;;18.90;11.87;;;;;;;;;;5030850;28;20460;-80
2021/12/16 01:42:31;;;;;;;25.07;15.70;;;;;;;;;;5029739;28;20452;-80
2021/12/16 01:47:59;;;;;;;25.50;14.23;;;;;;;;;;5032470;28;20446;-80
2021/12/16 01:50:30;;;;;;;26.10;15.57;;;;;;;;;;5029613;28;20524;-81
2021/12/16 01:55:37;;;;;;;27.93;14.27;;;;;;;;;;5027763;28;20450;-80
2021/12/16 01:58:12;;;;;;;27.47;16.43;;;;;;;;;;5028159;28;20457;-78
2021/12/16 02:00:52;;;;;;;32.83;17.80;;;;;;;;;;5030402;28;20519;-81
2021/12/16 02:03:25;;;;;;;30.63;17.70;;;;;;;;;;5029085;28;21191;-81
2021/12/16 02:05:59;;;;;;;27.70;16.17;;;;;;;;;;5028575;28;20540;-82
2021/12/16 02:08:28;;;;;;;29.63;16.30;;;;;;;;;;5026492;28;20527;-81
2021/12/16 02:11:06;;;;;;;26.93;15.47;;;;;;;;;;5025331;28;20448;-80
2021/12/16 02:33:06;;;;;;;33.30;17.87;;;;;;;;;;5028151;28;21079;-81
2021/12/16 02:35:35;;;;;;;39.67;19.33;;;;;;;;;;5028345;28;20543;-81
2021/12/16 02:38:05;;;;;;;34.57;19.80;;;;;;;;;;5027005;28;21057;-80
2021/12/16 02:40:32;;;;;;;35.27;19.63;;;;;;;;;;5027827;28;20476;-80
2021/12/16 02:43:04;;;;;;;32.90;19.33;;;;;;;;;;5027628;28;20473;-80
2021/12/16 02:48:32;;;;;;;36.83;21.20;;;;;;;;;;5026033;28;20472;-80
2021/12/16 02:50:59;;;;;;;44.03;20.33;;;;;;;;;;5028896;28;20536;-81
2021/12/16 02:53:26;;;;;;;30.63;18.00;;;;;;;;;;5027035;28;20894;-81
2021/12/16 02:55:53;;;;;;;34.10;17.80;;;;;;;;;;5027730;28;20487;-81
2021/12/16 02:58:19;;;;;;;35.43;19.60;;;;;;;;;;5025468;28;20518;-81
2021/12/16 03:00:48;;;;;;;37.83;20.27;;;;;;;;;;5026670;28;20510;-80
2021/12/16 03:03:15;;;;;;;36.17;19.10;;;;;;;;;;5025146;28;20545;-80
2021/12/16 03:05:42;;;;;;;40.50;21.23;;;;;;;;;;5027881;28;20878;-80
2021/12/16 03:08:08;;;;;;;36.73;20.70;;;;;;;;;;5025748;28;20453;-80
2021/12/16 03:11:01;;;;;;;38.73;21.80;;;;;;;;;;5028680;28;20445;-81
2021/12/16 03:13:31;;;;;;;33.67;20.10;;;;;;;;;;5025789;28;20500;-80
2021/12/16 03:16:09;;;;;;;43.57;21.20;;;;;;;;;;5026357;28;20946;-81
2021/12/16 03:18:43;;;;;;;41.10;22.00;;;;;;;;;;5026672;28;20484;-81
2021/12/16 03:21:16;;;;;;;36.00;20.43;;;;;;;;;;5026452;28;20464;-80
2021/12/16 03:23:56;;;;;;;34.00;21.20;;;;;;;;;;5027386;28;21432;-79
2021/12/16 03:26:51;;;;;;;44.47;21.43;;;;;;;;;;5028178;28;20468;-81
2021/12/16 03:32:23;;;;;;;40.33;21.37;;;;;;;;;;5028834;28;20428;-81
2021/12/16 03:34:59;;;;;;;30.13;19.50;;;;;;;;;;5027075;28;20491;-81
2021/12/16 03:37:26;;;;;;;39.57;22.33;;;;;;;;;;5028163;28;20454;-81
2021/12/16 03:39:53;;;;;;;37.40;20.97;;;;;;;;;;5027482;28;20479;-80
2021/12/16 03:42:23;;;;;;;44.33;22.30;;;;;;;;;;5028227;28;20476;-81
2021/12/16 03:44:56;;;;;;;42.17;21.83;;;;;;;;;;5027342;28;20476;-81
2021/12/16 03:47:25;;;;;;;42.40;21.27;;;;;;;;;;5028227;28;20942;-81
2021/12/16 03:49:51;;;;;;;34.50;21.20;;;;;;;;;;5026974;28;20500;-81
2021/12/16 03:52:18;;;;;;;39.10;21.57;;;;;;;;;;5026657;28;20543;-81
2021/12/16 03:54:49;;;;;;;39.90;21.17;;;;;;;;;;5026187;28;20503;-79
2021/12/16 03:57:17;;;;;;;40.70;20.90;;;;;;;;;;5027070;28;20473;-81
2021/12/16 03:59:45;;;;;;;38.03;21.60;;;;;;;;;;5025352;28;20473;-80
2021/12/16 04:02:13;;;;;;;36.90;20.97;;;;;;;;;;5025787;28;20453;-81
2021/12/16 04:04:40;;;;;;;39.67;21.90;;;;;;;;;;5026255;28;20480;-81
2021/12/16 04:07:07;;;;;;;36.30;21.23;;;;;;;;;;5026046;28;20458;-80
2021/12/16 04:09:34;;;;;;;36.67;20.20;;;;;;;;;;5027386;28;20513;-81
2021/12/16 04:12:08;;;;;;;34.03;20.07;;;;;;;;;;5026151;28;20460;-78
2021/12/16 04:14:34;;;;;;;42.63;22.87;;;;;;;;;;5027063;28;20468;-80
2021/12/16 04:17:03;;;;;;;39.57;22.40;;;;;;;;;;5025972;28;20445;-81
2021/12/16 04:19:31;;;;;;;44.03;24.13;;;;;;;;;;5026847;28;20496;-81
2021/12/16 04:21:58;;;;;;;35.00;20.63;;;;;;;;;;5028634;28;20603;-81
2021/12/16 04:24:25;;;;;;;37.63;21.40;;;;;;;;;;5025697;28;20496;-81
2021/12/16 04:26:52;;;;;;;45.93;22.53;;;;;;;;;;5026630;28;20449;-81
2021/12/16 04:29:18;;;;;;;40.43;21.70;;;;;;;;;;5024422;28;20484;-81
2021/12/16 04:31:45;;;;;;;40.53;20.53;;;;;;;;;;5026519;28;20468;-81
2021/12/16 04:34:13;;;;;;;41.40;22.93;;;;;;;;;;5027299;28;20479;-80
2021/12/16 04:36:40;;;;;;;39.97;21.73;;;;;;;;;;5023472;28;20465;-81
2021/12/16 04:39:07;;;;;;;40.57;21.50;;;;;;;;;;5025715;28;20545;-80
2021/12/16 04:41:34;;;;;;;40.77;21.80;;;;;;;;;;5026666;28;20448;-81
2021/12/16 04:44:02;;;;;;;40.30;22.60;;;;;;;;;;5026260;28;20561;-81
2021/12/16 04:46:32;;;;;;;43.40;21.00;;;;;;;;;;5025792;28;20464;-81
2021/12/16 04:48:59;;;;;;;38.30;21.33;;;;;;;;;;5027352;28;20484;-81
2021/12/16 04:51:28;;;;;;;37.43;20.67;;;;;;;;;;5027502;28;20445;-81
2021/12/16 04:53:55;;;;;;;42.00;20.23;;;;;;;;;;5023550;28;20482;-81
2021/12/16 04:56:21;;;;;;;38.37;22.07;;;;;;;;;;5026894;28;20456;-81
2021/12/16 04:58:49;;;;;;;42.40;21.70;;;;;;;;;;5026232;28;20465;-82
2021/12/16 05:01:15;;;;;;;38.77;20.43;;;;;;;;;;5026604;28;20461;-80
2021/12/16 05:03:42;;;;;;;41.43;20.90;;;;;;;;;;5028847;28;20507;-81
2021/12/16 05:06:10;;;;;;;38.93;20.60;;;;;;;;;;5030474;28;20450;-81
2021/12/16 05:08:39;;;;;;;43.83;20.37;;;;;;;;;;5027522;28;20481;-80
2021/12/16 05:11:06;;;;;;;41.80;20.33;;;;;;;;;;5029919;28;20487;-80
2021/12/16 05:13:34;;;;;;;49.33;22.30;;;;;;;;;;5028944;28;20508;-81
2021/12/16 05:16:03;;;;;;;43.87;22.40;;;;;;;;;;5031097;28;20469;-81
2021/12/16 05:18:33;;;;;;;36.10;21.30;;;;;;;;;;5030047;28;20457;-81
2021/12/16 05:20:59;;;;;;;43.37;21.07;;;;;;;;;;5030322;28;20452;-81
2021/12/16 05:26:19;;;;;;;44.97;21.87;;;;;;;;;;5030796;28;20425;-81
2021/12/16 05:28:48;;;;;;;46.03;22.37;;;;;;;;;;5029511;28;20485;-80
2021/12/16 05:31:15;;;;;;;44.50;23.10;;;;;;;;;;5028436;28;20463;-81
2021/12/16 05:33:42;;;;;;;46.43;22.67;;;;;;;;;;5031828;28;20484;-80
2021/12/16 05:36:08;;;;;;;40.90;20.27;;;;;;;;;;5029423;28;20469;-81
2021/12/16 05:38:35;;;;;;;41.47;21.30;;;;;;;;;;5029684;28;20465;-81
2021/12/16 05:41:01;;;;;;;52.13;23.27;;;;;;;;;;5031062;28;20457;-81
2021/12/16 05:43:30;;;;;;;54.13;21.77;;;;;;;;;;5028430;28;20478;-79
2021/12/16 05:45:57;;;;;;;50.00;21.23;;;;;;;;;;5029546;28;20445;-81
2021/12/16 05:48:25;;;;;;;40.57;20.93;;;;;;;;;;5028341;28;20472;-81
2021/12/16 05:50:52;;;;;;;57.67;20.60;;;;;;;;;;5028772;28;20450;-81
2021/12/16 05:53:19;;;;;;;37.70;21.03;;;;;;;;;;5028644;28;20477;-81
2021/12/16 05:55:46;;;;;;;46.13;21.33;;;;;;;;;;5029901;28;20457;-80
2021/12/16 05:58:18;;;;;;;37.30;17.77;;;;;;;;;;5027817;28;20469;-81
2021/12/16 06:00:46;;;;;;;36.30;20.57;;;;;;;;;;5029787;28;20461;-81
2021/12/16 06:03:13;;;;;;;41.53;20.50;;;;;;;;;;5027520;28;21479;-80
2021/12/16 06:05:39;;;;;;;43.53;20.30;;;;;;;;;;5028018;28;20495;-79
2021/12/16 06:08:06;;;;;;;42.07;17.60;;;;;;;;;;5029060;28;20527;-80
2021/12/16 06:13:21;;;;;;;40.17;20.10;;;;;;;;;;5005905;28;20499;-77
2021/12/16 06:22:19;;;;;;;33.93;16.70;;;;;;;;;;5027884;28;20713;-80
2021/12/16 06:27:03;;;;;;;46.53;19.10;;;;;;;;;;5030064;28;20444;-80
2021/12/16 06:29:30;;;;;;;31.57;17.90;;;;;;;;;;5027088;28;20472;-81
2021/12/16 06:31:57;;;;;;;47.70;18.87;;;;;;;;;;5029587;28;20460;-80
2021/12/16 06:34:24;;;;;;;38.97;18.73;;;;;;;;;;5026771;28;21029;-80
2021/12/16 06:36:50;;;;;;;43.00;20.07;;;;;;;;;;5029050;28;20533;-80
2021/12/16 06:39:17;;;;;;;34.73;18.50;;;;;;;;;;5027651;28;20491;-81
2021/12/16 06:41:43;;;;;;;40.27;19.37;;;;;;;;;;5031639;28;20481;-81
2021/12/16 06:44:17;;;;;;;41.13;19.10;;;;;;;;;;5029250;28;20481;-82
2021/12/16 06:46:45;;;;;;;50.83;21.77;;;;;;;;;;5029472;28;20458;-81
2021/12/16 06:49:15;;;;;;;42.67;19.90;;;;;;;;;;5030490;28;21246;-82
2021/12/16 06:51:48;;;;;;;46.97;20.60;;;;;;;;;;5031198;28;20547;-82
2021/12/16 06:54:22;;;;;;;43.90;19.17;;;;;;;;;;5029346;28;20473;-81
2021/12/16 06:56:55;;;;;;;42.70;17.67;;;;;;;;;;5030320;28;20460;-82
2021/12/16 06:59:24;;;;;;;51.60;19.73;;;;;;;;;;5028845;28;20472;-81
2021/12/16 07:02:03;;;;;;;45.17;18.10;;;;;;;;;;5029760;28;20453;-81
2021/12/16 07:04:31;;;;;;;42.80;21.00;;;;;;;;;;5028541;28;20469;-81
2021/12/16 07:06:58;;;;;;;51.53;20.50;;;;;;;;;;5028033;28;20535;-80
2021/12/16 07:09:24;;;;;;;46.37;18.60;;;;;;;;;;5028230;28;20477;-81
2021/12/16 07:11:52;;;;;;;41.90;20.10;;;;;;;;;;5029149;28;20445;-81
2021/12/16 07:14:22;;;;;;;44.43;20.00;;;;;;;;;;5032091;28;20551;-80
2021/12/16 07:16:50;;;;;;;52.53;21.37;;;;;;;;;;5032234;28;20462;-82
2021/12/16 07:19:16;;;;;;;50.27;21.93;;;;;;;;;;5028596;28;20473;-81
2021/12/16 07:21:44;;;;;;;49.00;21.50;;;;;;;;;;5029857;28;20462;-79
2021/12/16 07:24:12;;;;;;;45.37;20.30;;;;;;;;;;5028470;28;20473;-81
2021/12/16 07:26:39;;;;;;;48.17;21.57;;;;;;;;;;5027070;28;20953;-80
2021/12/16 07:29:06;;;;;;;53.53;24.27;;;;;;;;;;5027556;28;20469;-80
2021/12/16 07:31:33;;;;;;;54.17;23.60;;;;;;;;;;5027721;28;20461;-81
2021/12/16 07:34:00;;;;;;;51.13;26.83;;;;;;;;;;5028062;28;20473;-81
2021/12/16 07:36:26;;;;;;;58.80;28.47;;;;;;;;;;5028163;28;20483;-81
2021/12/16 07:38:54;;;;;;;63.60;27.77;;;;;;;;;;5026228;28;20464;-81
2021/12/16 07:41:26;;;;;;;72.07;26.30;;;;;;;;;;5027335;28;20444;-82
2021/12/16 07:43:58;;;;;;;67.03;26.60;;;;;;;;;;5029337;28;20524;-82
2021/12/16 07:46:25;;;;;;;64.63;26.60;;;;;;;;;;5022679;28;20472;-80
2021/12/16 07:48:52;;;;;;;84.00;29.67;;;;;;;;;;5022478;28;20548;-80
2021/12/16 07:51:18;;;;;;;66.77;25.77;;;;;;;;;;5021991;28;20461;-80
2021/12/16 07:53:44;;;;;;;72.60;28.23;;;;;;;;;;5020199;28;20477;-80
2021/12/16 07:56:12;;;;;;;63.03;27.73;;;;;;;;;;5021059;28;20470;-79
2021/12/16 07:58:38;;;;;;;68.53;28.10;;;;;;;;;;5020845;28;20473;-79
2021/12/16 08:01:05;;;;;;;68.97;27.40;;;;;;;;;;5022024;28;20460;-79
2021/12/16 08:03:35;;;;;;;90.87;30.90;;;;;;;;;;5020202;28;20478;-79
2021/12/16 08:06:05;;;;;;;70.10;27.40;;;;;;;;;;5020687;28;21267;-80
2021/12/16 08:08:31;;;;;;;68.13;26.70;;;;;;;;;;5021414;28;20559;-79
2021/12/16 08:10:58;;;;;;;70.80;28.00;;;;;;;;;;5022439;28;20440;-79
2021/12/16 08:13:26;;;;;;;70.23;29.90;;;;;;;;;;5021762;28;20480;-79
2021/12/16 08:15:53;;;;;;;63.47;28.00;;;;;;;;;;5019261;28;20962;-79
2021/12/16 08:18:20;;;;;;;71.37;27.50;;;;;;;;;;5020580;28;20470;-79
2021/12/16 08:20:46;;;;;;;65.67;28.70;;;;;;;;;;5020494;28;20511;-79
2021/12/16 08:23:13;;;;;;;66.37;27.07;;;;;;;;;;5021241;28;20542;-79
2021/12/16 08:25:39;;;;;;;72.23;27.40;;;;;;;;;;5019260;28;20489;-79
2021/12/16 08:28:05;;;;;;;60.60;25.80;;;;;;;;;;5020870;28;20465;-79
2021/12/16 08:30:35;;;;;;;59.53;26.17;;;;;;;;;;5021721;28;20465;-79
2021/12/16 08:33:05;;;;;;;66.17;28.20;;;;;;;;;;5021240;28;22365;-79
2021/12/16 08:35:32;;;;;;;77.63;26.20;;;;;;;;;;5022354;28;20481;-79
2021/12/16 08:37:59;;;;;;;67.13;26.90;;;;;;;;;;5023234;28;20548;-77
2021/12/16 08:40:25;;;;;;;70.40;27.33;;;;;;;;;;5025549;28;20531;-79
2021/12/16 08:42:52;;;;;;;78.57;29.27;;;;;;;;;;5025726;28;20488;-79
2021/12/16 08:45:20;;;;;;;75.73;28.20;;;;;;;;;;5025371;28;20562;-79
2021/12/16 08:47:48;;;;;;;66.27;28.10;;;;;;;;;;5026476;28;20464;-78
2021/12/16 08:50:16;;;;;;;78.23;30.90;;;;;;;;;;5025058;28;20844;-80
2021/12/16 08:52:42;;;;;;;78.80;28.23;;;;;;;;;;5025093;28;20645;-77
2021/12/16 08:55:09;;;;;;;59.17;28.63;;;;;;;;;;5023763;28;20473;-80
2021/12/16 08:57:36;;;;;;;89.30;28.27;;;;;;;;;;5026110;28;20465;-79
2021/12/16 09:00:06;;;;;;;77.43;29.80;;;;;;;;;;5024296;28;20593;-79
2021/12/16 09:02:33;;;;;;;84.90;29.50;;;;;;;;;;5025168;28;20441;-80
2021/12/16 09:05:00;;;;;;;67.93;29.40;;;;;;;;;;5024519;28;20523;-79
2021/12/16 09:07:26;;;;;;;66.60;27.57;;;;;;;;;;5026134;28;20522;-79
2021/12/16 09:09:54;;;;;;;65.17;28.43;;;;;;;;;;5024567;28;20485;-79
2021/12/16 09:12:50;;;;;;;86.67;29.40;;;;;;;;;;5025790;28;20488;-80
2021/12/16 09:15:17;;;;;;;63.17;26.60;;;;;;;;;;5024623;28;20544;-80
2021/12/16 09:17:43;;;;;;;66.50;27.67;;;;;;;;;;5024043;28;20891;-78
2021/12/16 09:20:11;;;;;;;70.17;27.00;;;;;;;;;;5024525;28;20492;-80
2021/12/16 09:22:38;;;;;;;66.30;27.70;;;;;;;;;;5026375;28;20465;-79
2021/12/16 09:25:06;;;;;;;76.90;31.70;;;;;;;;;;5024460;28;20477;-80
2021/12/16 09:27:32;;;;;;;70.27;28.13;;;;;;;;;;5025824;28;20456;-79
2021/12/16 09:29:58;;;;;;;73.23;27.80;;;;;;;;;;5022919;28;20535;-79
2021/12/16 09:32:28;;;;;;;63.67;26.83;;;;;;;;;;5022246;28;20468;-79
2021/12/16 09:34:55;;;;;;;64.93;27.83;;;;;;;;;;5025381;28;20851;-79
2021/12/16 09:37:22;;;;;;;56.57;28.70;;;;;;;;;;5028840;28;20885;-80
2021/12/16 09:39:49;;;;;;;64.43;28.60;;;;;;;;;;5025269;28;20526;-81
2021/12/16 09:42:15;;;;;;;70.17;29.10;;;;;;;;;;5028078;28;20460;-80
2021/12/16 09:44:42;;;;;;;66.40;29.77;;;;;;;;;;5026326;28;20473;-80
2021/12/16 09:47:10;;;;;;;58.73;28.03;;;;;;;;;;5027423;28;20572;-81
2021/12/16 09:49:36;;;;;;;57.30;26.70;;;;;;;;;;5026218;28;20481;-80
2021/12/16 09:52:04;;;;;;;66.40;27.87;;;;;;;;;;5026062;28;20554;-80
2021/12/16 09:54:33;;;;;;;67.77;27.60;;;;;;;;;;5027302;28;20481;-80
2021/12/16 09:57:00;;;;;;;65.30;29.10;;;;;;;;;;5027497;28;20464;-80
2021/12/16 09:59:28;;;;;;;63.17;29.30;;;;;;;;;;5027902;28;20480;-80
2021/12/16 10:01:59;;;;;;;65.00;30.13;;;;;;;;;;5027452;28;20889;-81
2021/12/16 10:04:31;;;;;;;71.07;29.37;;;;;;;;;;5027571;28;20933;-80
2021/12/16 10:06:58;;;;;;;72.87;30.87;;;;;;;;;;5028229;28;20511;-80
2021/12/16 10:09:24;;;;;;;77.70;30.47;;;;;;;;;;5025429;28;20478;-81
2021/12/16 10:11:53;;;;;;;65.93;30.23;;;;;;;;;;5027199;28;20978;-81
2021/12/16 10:14:32;;;;;;;66.57;28.27;;;;;;;;;;5026220;28;20470;-80
2021/12/16 10:19:44;;;;;;;70.90;29.63;;;;;;;;;;5027768;28;20468;-80
2021/12/16 10:22:18;;;;;;;70.53;31.10;;;;;;;;;;5027700;28;20946;-80
2021/12/16 10:24:44;;;;;;;62.57;26.67;;;;;;;;;;5027281;28;20473;-79
2021/12/16 10:27:13;;;;;;;60.27;27.37;;;;;;;;;;5028630;28;20886;-80
2021/12/16 10:29:41;;;;;;;70.57;28.57;;;;;;;;;;5028227;28;20535;-80
2021/12/16 10:32:08;;;;;;;63.20;27.83;;;;;;;;;;5027620;28;20472;-80
2021/12/16 10:34:34;;;;;;;57.23;25.90;;;;;;;;;;5028405;28;20452;-80
2021/12/16 10:37:00;;;;;;;63.57;28.03;;;;;;;;;;5027228;28;20462;-80
2021/12/16 10:39:27;;;;;;;83.13;28.97;;;;;;;;;;5027017;28;20485;-80
2021/12/16 10:41:54;;;;;;;64.30;28.53;;;;;;;;;;5026883;28;20518;-80
2021/12/16 10:44:23;;;;;;;55.50;25.53;;;;;;;;;;5026637;28;20538;-79
2021/12/16 10:46:51;;;;;;;63.40;28.10;;;;;;;;;;5026540;28;20454;-80
2021/12/16 10:49:19;;;;;;;57.30;26.50;;;;;;;;;;5025498;28;20496;-80
2021/12/16 10:51:47;;;;;;;54.60;26.07;;;;;;;;;;5028001;28;20464;-80
2021/12/16 10:54:17;;;;;;;69.33;28.30;;;;;;;;;;5026492;28;20530;-80
2021/12/16 10:56:46;;;;;;;60.53;27.77;;;;;;;;;;5026648;28;20475;-80
2021/12/16 10:59:14;;;;;;;50.80;27.60;;;;;;;;;;5026129;28;20542;-80
2021/12/16 11:01:44;;;;;;;63.20;27.97;;;;;;;;;;5027281;28;20457;-80
2021/12/16 11:04:14;;;;;;;57.30;27.73;;;;;;;;;;5026884;28;20539;-80
2021/12/16 11:06:41;;;;;;;59.60;25.97;;;;;;;;;;5027858;28;20851;-81
2021/12/16 11:09:29;;;;;;;55.60;25.60;;;;;;;;;;5026489;28;20622;-80
2021/12/16 11:12:06;;;;;;;65.50;25.90;;;;;;;;;;5026206;28;21043;-80
2021/12/16 11:14:32;;;;;;;61.27;25.87;;;;;;;;;;5026660;28;20512;-80
2021/12/16 11:17:01;;;;;;;63.13;24.73;;;;;;;;;;5026610;28;20508;-80
2021/12/16 11:19:38;;;;;;;62.83;25.70;;;;;;;;;;5026241;28;20488;-80
2021/12/16 11:22:06;;;;;;;50.47;24.83;;;;;;;;;;5027495;28;20830;-81
2021/12/16 11:24:32;;;;;;;68.87;24.80;;;;;;;;;;5026723;28;20504;-80
2021/12/16 11:26:58;;;;;;;59.50;25.90;;;;;;;;;;5025863;28;20477;-80
2021/12/16 11:29:28;;;;;;;61.10;27.33;;;;;;;;;;5024643;28;20507;-81
2021/12/16 11:31:56;;;;;;;62.33;24.77;;;;;;;;;;5026734;28;20488;-81
2021/12/16 11:34:24;;;;;;;48.10;23.77;;;;;;;;;;5025949;28;20473;-81
2021/12/16 11:36:53;;;;;;;51.43;23.87;;;;;;;;;;5027344;28;20452;-81
2021/12/16 11:39:20;;;;;;;58.67;25.43;;;;;;;;;;5025301;28;20476;-80
2021/12/16 11:41:48;;;;;;;45.47;21.27;;;;;;;;;;5027109;28;20492;-80
2021/12/16 11:44:16;;;;;;;48.33;23.83;;;;;;;;;;5026917;28;20473;-81
2021/12/16 11:46:44;;;;;;;48.50;23.20;;;;;;;;;;5025418;28;20500;-79
2021/12/16 11:49:14;;;;;;;61.83;24.37;;;;;;;;;;5025146;28;20469;-80
2021/12/16 11:51:43;;;;;;;49.97;21.30;;;;;;;;;;5027390;28;20552;-81
2021/12/16 11:54:14;;;;;;;43.57;21.47;;;;;;;;;;5026250;28;20503;-80
2021/12/16 11:56:43;;;;;;;35.60;22.00;;;;;;;;;;5026866;28;20492;-80
2021/12/16 11:59:10;;;;;;;39.83;22.20;;;;;;;;;;5026363;28;20466;-80
2021/12/16 12:01:37;;;;;;;42.70;20.03;;;;;;;;;;5026569;28;20446;-81
2021/12/16 12:04:05;;;;;;;37.93;21.40;;;;;;;;;;5024293;28;20482;-80
2021/12/16 12:06:31;;;;;;;39.50;20.00;;;;;;;;;;5027261;28;20511;-80
2021/12/16 12:09:01;;;;;;;42.47;18.83;;;;;;;;;;5024680;28;20544;-80
2021/12/16 12:11:29;;;;;;;38.50;19.90;;;;;;;;;;5026797;28;20460;-81
2021/12/16 12:13:57;;;;;;;26.53;14.93;;;;;;;;;;5029023;28;20484;-80
2021/12/16 12:16:26;;;;;;;29.07;15.20;;;;;;;;;;5030108;28;20998;-81
2021/12/16 12:18:54;;;;;;;25.70;14.80;;;;;;;;;;5030279;28;20904;-81
2021/12/16 12:21:23;;;;;;;25.67;14.57;;;;;;;;;;5030335;28;20468;-80
2021/12/16 12:23:50;;;;;;;25.87;15.40;;;;;;;;;;5029592;28;20538;-80
2021/12/16 12:26:19;;;;;;;30.50;16.53;;;;;;;;;;5029888;28;21031;-80
2021/12/16 12:28:46;;;;;;;35.03;18.20;;;;;;;;;;5028672;28;20461;-80
2021/12/16 12:31:12;;;;;;;40.53;19.03;;;;;;;;;;5029556;28;20510;-80
2021/12/16 12:33:39;;;;;;;34.00;18.30;;;;;;;;;;5029303;28;20469;-80
2021/12/16 12:36:07;;;;;;;35.70;17.73;;;;;;;;;;5029115;28;20496;-80
2021/12/16 12:38:34;;;;;;;33.40;16.73;;;;;;;;;;5028563;28;20468;-81
2021/12/16 12:41:00;;;;;;;31.73;15.13;;;;;;;;;;5031782;28;20469;-82
2021/12/16 12:43:29;;;;;;;33.37;14.03;;;;;;;;;;5031516;28;20531;-81
2021/12/16 12:45:56;;;;;;;22.80;14.57;;;;;;;;;;5031485;28;20554;-82
2021/12/16 12:48:22;;;;;;;27.00;13.60;;;;;;;;;;5029263;28;20467;-81
2021/12/16 12:50:50;;;;;;;19.60;11.70;;;;;;;;;;5032731;28;20963;-82
2021/12/16 12:53:18;;;;;;;24.43;11.50;;;;;;;;;;5030096;28;20952;-81
2021/12/16 12:55:46;;;;;;;25.57;12.17;;;;;;;;;;5031328;28;20516;-82
2021/12/16 12:58:14;;;;;;;20.50;12.47;;;;;;;;;;5030630;28;20539;-82
2021/12/16 13:00:45;;;;;;;23.70;12.80;;;;;;;;;;5032674;28;21055;-81
2021/12/16 13:03:12;;;;;;;20.73;12.13;;;;;;;;;;5031123;28;20488;-81
2021/12/16 13:05:40;;;;;;;15.73;11.97;;;;;;;;;;5030623;28;20496;-79
2021/12/16 13:08:07;;;;;;;18.70;11.10;;;;;;;;;;5024947;28;20492;-81
2021/12/16 13:10:35;;;;;;;18.17;11.17;;;;;;;;;;5030872;28;20463;-81
2021/12/16 13:16:24;;;;;;;19.03;11.00;;;;;;;;;;5025651;28;20487;-82
2021/12/16 13:24:44;;;;;;;23.27;13.63;;;;;;;;;;5025925;28;20841;-79
2021/12/16 13:27:22;;;;;;;24.60;14.17;;;;;;;;;;5027192;28;20469;-82
2021/12/16 13:30:06;;;;;;;22.47;12.33;;;;;;;;;;5024143;28;20476;-80
2021/12/16 13:32:42;;;;;;;18.63;12.07;;;;;;;;;;5025595;28;20465;-79
2021/12/16 13:35:21;;;;;;;17.17;11.80;;;;;;;;;;5024904;28;20479;-79
2021/12/16 13:37:48;;;;;;;18.13;10.93;;;;;;;;;;5023168;28;21829;-80
2021/12/16 13:40:19;;;;;;;18.00;11.97;;;;;;;;;;5023828;28;20473;-80
2021/12/16 13:42:48;;;;;;;15.87;10.90;;;;;;;;;;5025982;28;20477;-79
2021/12/16 13:45:17;;;;;;;18.97;11.37;;;;;;;;;;5022980;28;21006;-79
2021/12/16 13:48:03;;;;;;;21.37;12.10;;;;;;;;;;5025335;28;20461;-78
2021/12/16 14:01:52;;;;;;;26.60;12.67;;;;;;;;;;4979568;28;20874;-79
2021/12/16 14:04:51;;;;;;;24.60;14.40;;;;;;;;;;5023163;28;20580;-80
2021/12/16 14:07:40;;;;;;;23.87;14.47;;;;;;;;;;5024213;28;20458;-80
2021/12/16 14:10:14;;;;;;;23.37;14.47;;;;;;;;;;5024131;28;20479;-79
2021/12/16 14:15:43;;;;;;;20.23;14.07;;;;;;;;;;5024897;28;20476;-80
2021/12/16 14:22:56;;;;;;;19.20;11.17;;;;;;;;;;5025837;28;20464;-79
2021/12/16 14:24:11;;;;;;;21.37;13.53;;;;;;;;;;5023558;28;20479;-80
2021/12/16 14:26:48;;;;;;;17.57;11.23;;;;;;;;;;5023698;28;20981;-79
2021/12/16 14:37:47;;;;;;;15.40;9.90;;;;;;;;;;5024865;28;20479;-82
2021/12/16 14:40:35;;;;;;;20.17;10.47;;;;;;;;;;5022655;28;20480;-80
2021/12/16 14:43:16;;;;;;;20.53;10.60;;;;;;;;;;5022363;28;21156;-80
2021/12/16 14:45:46;;;;;;;15.47;9.80;;;;;;;;;;5028078;28;20452;-78
2021/12/16 14:48:26;;;;;;;17.10;9.80;;;;;;;;;;5027196;28;20476;-81
2021/12/16 14:50:53;;;;;;;22.40;10.60;;;;;;;;;;5028802;28;20457;-82
2021/12/16 14:53:22;;;;;;;16.93;9.50;;;;;;;;;;5028642;28;20497;-81
2021/12/16 14:55:50;;;;;;;18.90;10.47;;;;;;;;;;5029955;28;20487;-82
2021/12/16 14:58:18;;;;;;;13.93;9.30;;;;;;;;;;5028953;28;20474;-81
2021/12/16 15:00:49;;;;;;;15.40;10.27;;;;;;;;;;5027400;28;20979;-81
2021/12/16 15:03:17;;;;;;;17.73;9.97;;;;;;;;;;5021063;28;20488;-79
2021/12/16 15:05:46;;;;;;;16.00;9.70;;;;;;;;;;5021990;28;20500;-79
2021/12/16 15:08:15;;;;;;;21.10;10.30;;;;;;;;;;5020222;28;20514;-80
2021/12/16 15:10:44;;;;;;;16.10;9.70;;;;;;;;;;5022323;28;20478;-79
2021/12/16 15:13:16;;;;;;;20.17;10.60;;;;;;;;;;5022961;28;20858;-79
2021/12/16 15:15:53;;;;;;;18.10;9.87;;;;;;;;;;5021950;28;20835;-78
2021/12/16 15:38:13;;;;;;;12.70;8.70;;;;;;;;;;5022091;28;21036;-79
2021/12/16 15:40:56;;;;;;;14.73;9.17;;;;;;;;;;5021304;28;20601;-79
2021/12/16 15:43:30;;;;;;;15.73;9.77;;;;;;;;;;5021883;28;20472;-80
2021/12/16 15:45:57;;;;;;;17.70;11.07;;;;;;;;;;5021839;28;20450;-79
2021/12/16 15:48:24;;;;;;;20.30;9.73;;;;;;;;;;5020696;28;20461;-79
2021/12/16 15:50:52;;;;;;;15.27;8.90;;;;;;;;;;5022658;28;20473;-80
2021/12/16 15:53:19;;;;;;;13.57;9.00;;;;;;;;;;5020865;28;20569;-79
2021/12/16 15:55:47;;;;;;;15.47;10.23;;;;;;;;;;5021553;28;20469;-79
2021/12/16 15:58:14;;;;;;;14.27;9.10;;;;;;;;;;5020414;28;20451;-79
2021/12/16 16:00:43;;;;;;;14.57;10.83;;;;;;;;;;5019550;28;20496;-79
2021/12/16 16:03:11;;;;;;;18.50;11.50;;;;;;;;;;5021762;28;20477;-80
2021/12/16 16:05:38;;;;;;;15.30;9.77;;;;;;;;;;5022809;28;20457;-80
2021/12/16 16:08:06;;;;;;;14.83;10.10;;;;;;;;;;5021939;28;20511;-79
2021/12/16 16:10:33;;;;;;;16.90;10.63;;;;;;;;;;5022768;28;20461;-79
2021/12/16 16:13:07;;;;;;;22.43;10.30;;;;;;;;;;5021461;28;20515;-79
2021/12/16 16:15:34;;;;;;;18.40;11.00;;;;;;;;;;5021371;28;20966;-79
2021/12/16 16:18:12;;;;;;;16.90;10.23;;;;;;;;;;5022097;28;20894;-77
2021/12/16 16:20:40;;;;;;;16.70;10.00;;;;;;;;;;5023371;28;20472;-80
2021/12/16 16:23:07;;;;;;;14.57;10.17;;;;;;;;;;5021846;28;20481;-79
2021/12/16 16:25:34;;;;;;;17.03;10.47;;;;;;;;;;5021695;28;20460;-79
2021/12/16 16:28:02;;;;;;;17.40;10.90;;;;;;;;;;5021797;28;20839;-78
2021/12/16 16:30:28;;;;;;;20.20;10.97;;;;;;;;;;5020326;28;20481;-80
2021/12/16 16:33:00;;;;;;;16.20;10.40;;;;;;;;;;5021750;28;20484;-79
2021/12/16 16:35:28;;;;;;;17.80;10.30;;;;;;;;;;5021301;28;20531;-79
2021/12/16 16:38:06;;;;;;;22.73;12.00;;;;;;;;;;5020413;28;20839;-79
2021/12/16 16:40:36;;;;;;;21.63;12.47;;;;;;;;;;5021223;28;20476;-79
2021/12/16 16:43:02;;;;;;;16.07;10.60;;;;;;;;;;5020424;28;20489;-79
2021/12/16 16:45:30;;;;;;;19.23;12.43;;;;;;;;;;5021022;28;20449;-79
2021/12/16 16:48:05;;;;;;;20.97;11.70;;;;;;;;;;5021024;28;20985;-79
2021/12/16 16:50:36;;;;;;;20.77;11.93;;;;;;;;;;5020640;28;20703;-79
2021/12/16 16:53:02;;;;;;;17.10;11.07;;;;;;;;;;5021457;28;20492;-80
2021/12/16 16:55:33;;;;;;;19.47;12.70;;;;;;;;;;5020664;28;20528;-80
2021/12/16 16:58:01;;;;;;;22.30;12.43;;;;;;;;;;5021136;28;20486;-78
2021/12/16 17:00:29;;;;;;;18.80;11.23;;;;;;;;;;5024912;28;20514;-79
2021/12/16 17:02:56;;;;;;;17.83;10.77;;;;;;;;;;5024752;28;20501;-79
2021/12/16 17:05:24;;;;;;;19.67;11.27;;;;;;;;;;5024436;28;20488;-79
2021/12/16 17:07:53;;;;;;;19.97;11.23;;;;;;;;;;5024424;28;20823;-79